sensor_id;sensor_type;location;lat;lon;timestamp;P1;durP1;ratioP1;P2;durP2;ratioP2
10801;SDS011;5453;50.852;7.102;2023-06-14T00:01:17;5.65;;;3.60;;
10801;SDS011;5453;50.852;7.102;2023-06-14T00:03:52;6.78;;;4.30;;
10801;SDS011;5453;50.852;7.102;2023-06-14T00:06:24;4.65;;;3.63;;
10801;SDS011;5453;50.852;7.102;2023-06-14T00:08:56;4.90;;;3.78;;
10801;SDS011;5453;50.852;7.102;2023-06-14T00:11:28;5.85;;;3.83;;
10801;SDS011;5453;50.852;7.102;2023-06-14T00:14:02;7.10;;;4.03;;
10801;SDS011;5453;50.852;7.102;2023-06-14T00:16:34;5.95;;;3.85;;
10801;SDS011;5453;50.852;7.102;2023-06-14T00:19:07;5.03;;;3.88;;
10801;SDS011;5453;50.852;7.102;2023-06-14T00:21:40;6.35;;;4.22;;
10801;SDS011;5453;50.852;7.102;2023-06-14T00:24:13;4.88;;;3.33;;
10801;SDS011;5453;50.852;7.102;2023-06-14T00:26:45;6.25;;;3.80;;
10801;SDS011;5453;50.852;7.102;2023-06-14T00:29:20;5.85;;;3.40;;
10801;SDS011;5453;50.852;7.102;2023-06-14T00:31:52;4.47;;;3.55;;
10801;SDS011;5453;50.852;7.102;2023-06-14T00:34:24;5.28;;;3.47;;
10801;SDS011;5453;50.852;7.102;2023-06-14T00:36:56;4.40;;;3.08;;
10801;SDS011;5453;50.852;7.102;2023-06-14T00:39:28;5.10;;;3.30;;
10801;SDS011;5453;50.852;7.102;2023-06-14T00:42:00;4.63;;;3.42;;
10801;SDS011;5453;50.852;7.102;2023-06-14T00:44:33;5.45;;;3.13;;
10801;SDS011;5453;50.852;7.102;2023-06-14T00:47:06;4.28;;;3.20;;
10801;SDS011;5453;50.852;7.102;2023-06-14T00:49:38;4.10;;;3.00;;
10801;SDS011;5453;50.852;7.102;2023-06-14T00:52:10;4.88;;;3.10;;
10801;SDS011;5453;50.852;7.102;2023-06-14T00:54:42;4.75;;;3.20;;
10801;SDS011;5453;50.852;7.102;2023-06-14T00:57:15;5.63;;;3.00;;
10801;SDS011;5453;50.852;7.102;2023-06-14T00:59:49;5.07;;;3.40;;
10801;SDS011;5453;50.852;7.102;2023-06-14T01:02:21;5.18;;;3.45;;
10801;SDS011;5453;50.852;7.102;2023-06-14T01:04:54;5.93;;;3.20;;
10801;SDS011;5453;50.852;7.102;2023-06-14T01:07:30;4.80;;;2.90;;
10801;SDS011;5453;50.852;7.102;2023-06-14T01:10:27;4.85;;;3.00;;
10801;SDS011;5453;50.852;7.102;2023-06-14T01:13:10;4.63;;;3.35;;
10801;SDS011;5453;50.852;7.102;2023-06-14T01:15:50;4.40;;;3.08;;
10801;SDS011;5453;50.852;7.102;2023-06-14T01:18:25;5.05;;;3.20;;
10801;SDS011;5453;50.852;7.102;2023-06-14T01:20:59;5.22;;;3.20;;
10801;SDS011;5453;50.852;7.102;2023-06-14T01:23:37;4.45;;;3.15;;
10801;SDS011;5453;50.852;7.102;2023-06-14T01:26:09;4.65;;;3.13;;
10801;SDS011;5453;50.852;7.102;2023-06-14T01:28:41;4.68;;;3.17;;
10801;SDS011;5453;50.852;7.102;2023-06-14T01:31:19;5.28;;;3.17;;
10801;SDS011;5453;50.852;7.102;2023-06-14T01:33:52;6.07;;;3.72;;
10801;SDS011;5453;50.852;7.102;2023-06-14T01:36:27;5.72;;;3.22;;
10801;SDS011;5453;50.852;7.102;2023-06-14T01:39:02;5.22;;;3.22;;
10801;SDS011;5453;50.852;7.102;2023-06-14T01:41:36;5.35;;;3.50;;
10801;SDS011;5453;50.852;7.102;2023-06-14T01:44:09;3.95;;;2.97;;
10801;SDS011;5453;50.852;7.102;2023-06-14T01:46:43;5.15;;;3.38;;
10801;SDS011;5453;50.852;7.102;2023-06-14T01:49:16;6.03;;;3.60;;
10801;SDS011;5453;50.852;7.102;2023-06-14T01:51:49;5.07;;;3.28;;
10801;SDS011;5453;50.852;7.102;2023-06-14T01:54:22;5.45;;;3.65;;
10801;SDS011;5453;50.852;7.102;2023-06-14T01:56:55;5.00;;;3.05;;
10801;SDS011;5453;50.852;7.102;2023-06-14T01:59:28;5.90;;;3.40;;
10801;SDS011;5453;50.852;7.102;2023-06-14T02:02:02;4.65;;;3.10;;
10801;SDS011;5453;50.852;7.102;2023-06-14T02:04:36;4.57;;;3.15;;
10801;SDS011;5453;50.852;7.102;2023-06-14T02:07:08;5.40;;;3.55;;
10801;SDS011;5453;50.852;7.102;2023-06-14T02:09:41;4.60;;;3.35;;
10801;SDS011;5453;50.852;7.102;2023-06-14T02:12:13;4.80;;;3.53;;
10801;SDS011;5453;50.852;7.102;2023-06-14T02:14:45;5.70;;;3.30;;
10801;SDS011;5453;50.852;7.102;2023-06-14T02:17:18;4.50;;;3.15;;
10801;SDS011;5453;50.852;7.102;2023-06-14T02:19:50;5.53;;;3.78;;
10801;SDS011;5453;50.852;7.102;2023-06-14T02:22:22;4.85;;;3.22;;
10801;SDS011;5453;50.852;7.102;2023-06-14T02:24:56;5.72;;;3.42;;
10801;SDS011;5453;50.852;7.102;2023-06-14T02:27:28;6.25;;;3.53;;
10801;SDS011;5453;50.852;7.102;2023-06-14T02:30:00;5.25;;;3.40;;
10801;SDS011;5453;50.852;7.102;2023-06-14T02:32:33;5.38;;;3.55;;
10801;SDS011;5453;50.852;7.102;2023-06-14T02:35:06;6.50;;;3.72;;
10801;SDS011;5453;50.852;7.102;2023-06-14T02:37:40;6.63;;;3.70;;
10801;SDS011;5453;50.852;7.102;2023-06-14T02:40:14;5.18;;;3.72;;
10801;SDS011;5453;50.852;7.102;2023-06-14T02:42:46;4.88;;;3.55;;
10801;SDS011;5453;50.852;7.102;2023-06-14T02:45:18;6.75;;;3.58;;
10801;SDS011;5453;50.852;7.102;2023-06-14T02:47:51;5.47;;;3.50;;
10801;SDS011;5453;50.852;7.102;2023-06-14T02:50:23;4.63;;;3.40;;
10801;SDS011;5453;50.852;7.102;2023-06-14T02:52:56;5.72;;;3.97;;
10801;SDS011;5453;50.852;7.102;2023-06-14T02:55:30;5.97;;;3.40;;
10801;SDS011;5453;50.852;7.102;2023-06-14T02:58:02;6.10;;;3.67;;
10801;SDS011;5453;50.852;7.102;2023-06-14T03:00:34;6.00;;;3.72;;
10801;SDS011;5453;50.852;7.102;2023-06-14T03:03:06;6.70;;;4.18;;
10801;SDS011;5453;50.852;7.102;2023-06-14T03:05:44;6.32;;;3.85;;
10801;SDS011;5453;50.852;7.102;2023-06-14T03:08:23;6.07;;;4.18;;
10801;SDS011;5453;50.852;7.102;2023-06-14T03:10:59;6.03;;;4.13;;
10801;SDS011;5453;50.852;7.102;2023-06-14T03:13:33;6.25;;;4.10;;
10801;SDS011;5453;50.852;7.102;2023-06-14T03:16:07;6.35;;;4.00;;
10801;SDS011;5453;50.852;7.102;2023-06-14T03:18:43;5.60;;;3.92;;
10801;SDS011;5453;50.852;7.102;2023-06-14T03:21:15;7.43;;;4.00;;
10801;SDS011;5453;50.852;7.102;2023-06-14T03:23:49;4.90;;;3.47;;
10801;SDS011;5453;50.852;7.102;2023-06-14T03:26:22;6.05;;;4.03;;
10801;SDS011;5453;50.852;7.102;2023-06-14T03:28:57;6.50;;;3.85;;
10801;SDS011;5453;50.852;7.102;2023-06-14T03:31:29;6.65;;;3.88;;
10801;SDS011;5453;50.852;7.102;2023-06-14T03:34:04;6.63;;;4.03;;
10801;SDS011;5453;50.852;7.102;2023-06-14T03:36:36;6.63;;;4.10;;
10801;SDS011;5453;50.852;7.102;2023-06-14T03:39:08;6.78;;;3.95;;
10801;SDS011;5453;50.852;7.102;2023-06-14T03:41:42;6.18;;;3.78;;
10801;SDS011;5453;50.852;7.102;2023-06-14T03:44:15;6.40;;;4.10;;
10801;SDS011;5453;50.852;7.102;2023-06-14T03:46:49;6.63;;;3.58;;
10801;SDS011;5453;50.852;7.102;2023-06-14T03:49:21;5.53;;;3.72;;
10801;SDS011;5453;50.852;7.102;2023-06-14T03:51:53;6.65;;;3.95;;
10801;SDS011;5453;50.852;7.102;2023-06-14T03:54:27;6.28;;;4.13;;
10801;SDS011;5453;50.852;7.102;2023-06-14T03:57:04;6.18;;;4.25;;
10801;SDS011;5453;50.852;7.102;2023-06-14T03:59:37;5.60;;;3.80;;
10801;SDS011;5453;50.852;7.102;2023-06-14T04:02:09;4.50;;;3.45;;
10801;SDS011;5453;50.852;7.102;2023-06-14T04:04:42;5.43;;;3.63;;
10801;SDS011;5453;50.852;7.102;2023-06-14T04:07:15;6.38;;;3.80;;
10801;SDS011;5453;50.852;7.102;2023-06-14T04:09:49;5.95;;;3.85;;
10801;SDS011;5453;50.852;7.102;2023-06-14T04:12:23;6.35;;;4.32;;
10801;SDS011;5453;50.852;7.102;2023-06-14T04:14:56;6.10;;;3.90;;
10801;SDS011;5453;50.852;7.102;2023-06-14T04:17:28;5.68;;;3.53;;
10801;SDS011;5453;50.852;7.102;2023-06-14T04:20:03;5.82;;;4.07;;
10801;SDS011;5453;50.852;7.102;2023-06-14T04:22:39;5.38;;;3.75;;
10801;SDS011;5453;50.852;7.102;2023-06-14T04:25:15;5.80;;;3.75;;
10801;SDS011;5453;50.852;7.102;2023-06-14T04:27:49;5.28;;;3.70;;
10801;SDS011;5453;50.852;7.102;2023-06-14T04:30:22;6.65;;;4.10;;
10801;SDS011;5453;50.852;7.102;2023-06-14T04:32:56;6.10;;;3.60;;
10801;SDS011;5453;50.852;7.102;2023-06-14T04:35:30;5.40;;;3.90;;
10801;SDS011;5453;50.852;7.102;2023-06-14T04:38:03;5.60;;;3.53;;
10801;SDS011;5453;50.852;7.102;2023-06-14T04:40:39;4.90;;;3.53;;
10801;SDS011;5453;50.852;7.102;2023-06-14T04:43:17;6.03;;;3.53;;
10801;SDS011;5453;50.852;7.102;2023-06-14T04:45:55;7.07;;;3.45;;
10801;SDS011;5453;50.852;7.102;2023-06-14T04:48:27;5.15;;;3.20;;
10801;SDS011;5453;50.852;7.102;2023-06-14T04:51:01;6.40;;;3.50;;
10801;SDS011;5453;50.852;7.102;2023-06-14T04:53:34;6.00;;;3.58;;
10801;SDS011;5453;50.852;7.102;2023-06-14T04:56:07;5.75;;;3.45;;
10801;SDS011;5453;50.852;7.102;2023-06-14T04:58:41;6.35;;;3.28;;
10801;SDS011;5453;50.852;7.102;2023-06-14T05:01:14;5.13;;;3.20;;
10801;SDS011;5453;50.852;7.102;2023-06-14T05:03:46;7.30;;;3.40;;
10801;SDS011;5453;50.852;7.102;2023-06-14T05:06:19;6.10;;;3.25;;
10801;SDS011;5453;50.852;7.102;2023-06-14T05:08:52;6.95;;;3.78;;
10801;SDS011;5453;50.852;7.102;2023-06-14T05:11:24;5.10;;;3.65;;
10801;SDS011;5453;50.852;7.102;2023-06-14T05:13:58;6.97;;;3.40;;
10801;SDS011;5453;50.852;7.102;2023-06-14T05:19:03;4.88;;;2.95;;
10801;SDS011;5453;50.852;7.102;2023-06-14T05:21:36;6.35;;;2.97;;
10801;SDS011;5453;50.852;7.102;2023-06-14T05:24:08;5.88;;;3.15;;
10801;SDS011;5453;50.852;7.102;2023-06-14T05:26:41;6.00;;;3.05;;
10801;SDS011;5453;50.852;7.102;2023-06-14T05:29:14;6.03;;;3.40;;
10801;SDS011;5453;50.852;7.102;2023-06-14T05:31:46;5.80;;;2.60;;
10801;SDS011;5453;50.852;7.102;2023-06-14T05:34:18;5.70;;;3.10;;
10801;SDS011;5453;50.852;7.102;2023-06-14T05:36:50;4.32;;;2.85;;
10801;SDS011;5453;50.852;7.102;2023-06-14T05:39:22;5.80;;;2.95;;
10801;SDS011;5453;50.852;7.102;2023-06-14T05:41:54;5.95;;;2.97;;
10801;SDS011;5453;50.852;7.102;2023-06-14T05:44:28;4.45;;;2.85;;
10801;SDS011;5453;50.852;7.102;2023-06-14T05:47:00;4.40;;;2.92;;
10801;SDS011;5453;50.852;7.102;2023-06-14T05:49:32;4.38;;;2.72;;
10801;SDS011;5453;50.852;7.102;2023-06-14T05:52:04;6.18;;;2.97;;
10801;SDS011;5453;50.852;7.102;2023-06-14T05:54:38;5.32;;;3.00;;
10801;SDS011;5453;50.852;7.102;2023-06-14T05:57:11;4.20;;;2.78;;
10801;SDS011;5453;50.852;7.102;2023-06-14T05:59:44;5.40;;;2.85;;
10801;SDS011;5453;50.852;7.102;2023-06-14T06:02:17;4.93;;;2.88;;
10801;SDS011;5453;50.852;7.102;2023-06-14T06:04:49;4.78;;;2.63;;
10801;SDS011;5453;50.852;7.102;2023-06-14T06:07:21;4.43;;;2.80;;
10801;SDS011;5453;50.852;7.102;2023-06-14T06:09:53;5.78;;;3.00;;
10801;SDS011;5453;50.852;7.102;2023-06-14T06:12:25;6.95;;;2.67;;
10801;SDS011;5453;50.852;7.102;2023-06-14T06:14:59;5.63;;;3.10;;
10801;SDS011;5453;50.852;7.102;2023-06-14T06:17:31;3.78;;;2.42;;
10801;SDS011;5453;50.852;7.102;2023-06-14T06:20:03;5.53;;;2.78;;
10801;SDS011;5453;50.852;7.102;2023-06-14T06:22:38;4.63;;;2.60;;
10801;SDS011;5453;50.852;7.102;2023-06-14T06:25:10;5.20;;;2.50;;
10801;SDS011;5453;50.852;7.102;2023-06-14T06:27:42;7.25;;;2.75;;
10801;SDS011;5453;50.852;7.102;2023-06-14T06:30:15;3.85;;;2.30;;
10801;SDS011;5453;50.852;7.102;2023-06-14T06:32:48;5.68;;;2.60;;
10801;SDS011;5453;50.852;7.102;2023-06-14T06:35:20;4.00;;;2.38;;
10801;SDS011;5453;50.852;7.102;2023-06-14T06:37:52;4.75;;;2.60;;
10801;SDS011;5453;50.852;7.102;2023-06-14T06:40:25;3.50;;;2.22;;
10801;SDS011;5453;50.852;7.102;2023-06-14T06:42:57;5.40;;;2.53;;
10801;SDS011;5453;50.852;7.102;2023-06-14T06:45:32;3.70;;;2.20;;
10801;SDS011;5453;50.852;7.102;2023-06-14T06:48:05;3.95;;;2.42;;
10801;SDS011;5453;50.852;7.102;2023-06-14T06:50:37;4.15;;;2.55;;
10801;SDS011;5453;50.852;7.102;2023-06-14T06:53:09;4.03;;;2.28;;
10801;SDS011;5453;50.852;7.102;2023-06-14T06:55:41;4.03;;;2.30;;
10801;SDS011;5453;50.852;7.102;2023-06-14T06:58:13;4.18;;;2.20;;
10801;SDS011;5453;50.852;7.102;2023-06-14T07:00:47;3.67;;;2.22;;
10801;SDS011;5453;50.852;7.102;2023-06-14T07:03:19;3.63;;;2.17;;
10801;SDS011;5453;50.852;7.102;2023-06-14T07:05:51;3.15;;;2.08;;
10801;SDS011;5453;50.852;7.102;2023-06-14T07:08:23;4.80;;;2.17;;
10801;SDS011;5453;50.852;7.102;2023-06-14T07:10:55;3.28;;;2.25;;
10801;SDS011;5453;50.852;7.102;2023-06-14T07:13:28;4.35;;;2.17;;
10801;SDS011;5453;50.852;7.102;2023-06-14T07:16:01;2.90;;;1.77;;
10801;SDS011;5453;50.852;7.102;2023-06-14T07:18:36;3.92;;;2.10;;
10801;SDS011;5453;50.852;7.102;2023-06-14T07:21:08;3.60;;;2.13;;
10801;SDS011;5453;50.852;7.102;2023-06-14T07:23:40;2.50;;;1.80;;
10801;SDS011;5453;50.852;7.102;2023-06-14T07:26:12;3.83;;;2.45;;
10801;SDS011;5453;50.852;7.102;2023-06-14T07:28:44;3.10;;;2.03;;
10801;SDS011;5453;50.852;7.102;2023-06-14T07:31:19;3.65;;;1.70;;
10801;SDS011;5453;50.852;7.102;2023-06-14T07:33:51;3.88;;;2.00;;
10801;SDS011;5453;50.852;7.102;2023-06-14T07:36:23;2.90;;;1.60;;
10801;SDS011;5453;50.852;7.102;2023-06-14T07:38:55;2.55;;;1.85;;
10801;SDS011;5453;50.852;7.102;2023-06-14T07:41:27;2.92;;;1.70;;
10801;SDS011;5453;50.852;7.102;2023-06-14T07:43:59;2.63;;;1.50;;
10801;SDS011;5453;50.852;7.102;2023-06-14T07:46:33;2.95;;;1.60;;
10801;SDS011;5453;50.852;7.102;2023-06-14T07:49:05;3.00;;;1.70;;
10801;SDS011;5453;50.852;7.102;2023-06-14T07:51:37;2.20;;;1.52;;
10801;SDS011;5453;50.852;7.102;2023-06-14T07:54:09;2.30;;;1.65;;
10801;SDS011;5453;50.852;7.102;2023-06-14T07:56:41;1.92;;;1.50;;
10801;SDS011;5453;50.852;7.102;2023-06-14T07:59:14;2.50;;;1.50;;
10801;SDS011;5453;50.852;7.102;2023-06-14T08:01:47;1.70;;;1.35;;
10801;SDS011;5453;50.852;7.102;2023-06-14T08:04:19;1.83;;;1.27;;
10801;SDS011;5453;50.852;7.102;2023-06-14T08:06:51;1.92;;;1.50;;
10801;SDS011;5453;50.852;7.102;2023-06-14T08:09:23;3.55;;;1.30;;
10801;SDS011;5453;50.852;7.102;2023-06-14T08:11:55;1.50;;;1.20;;
10801;SDS011;5453;50.852;7.102;2023-06-14T08:14:28;2.20;;;1.20;;
10801;SDS011;5453;50.852;7.102;2023-06-14T08:17:01;3.97;;;1.60;;
10801;SDS011;5453;50.852;7.102;2023-06-14T08:19:33;2.22;;;1.25;;
10801;SDS011;5453;50.852;7.102;2023-06-14T08:22:05;2.72;;;1.30;;
10801;SDS011;5453;50.852;7.102;2023-06-14T08:24:38;4.28;;;1.20;;
10801;SDS011;5453;50.852;7.102;2023-06-14T08:27:10;3.28;;;1.40;;
10801;SDS011;5453;50.852;7.102;2023-06-14T08:29:43;2.75;;;1.48;;
10801;SDS011;5453;50.852;7.102;2023-06-14T08:32:17;2.33;;;1.45;;
10801;SDS011;5453;50.852;7.102;2023-06-14T08:34:49;1.83;;;1.30;;
10801;SDS011;5453;50.852;7.102;2023-06-14T08:37:21;3.17;;;1.50;;
10801;SDS011;5453;50.852;7.102;2023-06-14T08:39:54;2.95;;;1.40;;
10801;SDS011;5453;50.852;7.102;2023-06-14T08:42:26;2.05;;;1.33;;
10801;SDS011;5453;50.852;7.102;2023-06-14T08:44:58;2.67;;;1.30;;
10801;SDS011;5453;50.852;7.102;2023-06-14T08:47:32;2.78;;;1.38;;
10801;SDS011;5453;50.852;7.102;2023-06-14T08:50:07;2.13;;;1.05;;
10801;SDS011;5453;50.852;7.102;2023-06-14T08:52:40;2.00;;;1.30;;
10801;SDS011;5453;50.852;7.102;2023-06-14T08:55:21;1.63;;;1.38;;
10801;SDS011;5453;50.852;7.102;2023-06-14T08:57:57;1.98;;;1.30;;
10801;SDS011;5453;50.852;7.102;2023-06-14T09:00:29;1.83;;;1.20;;
10801;SDS011;5453;50.852;7.102;2023-06-14T09:03:04;1.55;;;1.02;;
10801;SDS011;5453;50.852;7.102;2023-06-14T09:05:43;2.45;;;1.30;;
10801;SDS011;5453;50.852;7.102;2023-06-14T09:08:16;2.13;;;1.23;;
10801;SDS011;5453;50.852;7.102;2023-06-14T09:10:49;1.30;;;1.20;;
10801;SDS011;5453;50.852;7.102;2023-06-14T09:13:21;2.67;;;1.33;;
10801;SDS011;5453;50.852;7.102;2023-06-14T09:15:53;2.15;;;1.20;;
10801;SDS011;5453;50.852;7.102;2023-06-14T09:18:34;1.40;;;1.05;;
10801;SDS011;5453;50.852;7.102;2023-06-14T09:21:07;2.63;;;1.08;;
10801;SDS011;5453;50.852;7.102;2023-06-14T09:23:40;1.55;;;0.73;;
10801;SDS011;5453;50.852;7.102;2023-06-14T09:26:14;1.48;;;1.00;;
10801;SDS011;5453;50.852;7.102;2023-06-14T09:28:48;2.35;;;1.08;;
10801;SDS011;5453;50.852;7.102;2023-06-14T09:31:21;1.73;;;0.95;;
10801;SDS011;5453;50.852;7.102;2023-06-14T09:33:55;1.45;;;1.25;;
10801;SDS011;5453;50.852;7.102;2023-06-14T09:36:27;1.75;;;1.10;;
10801;SDS011;5453;50.852;7.102;2023-06-14T09:39:01;2.25;;;1.08;;
10801;SDS011;5453;50.852;7.102;2023-06-14T09:41:36;3.30;;;1.20;;
10801;SDS011;5453;50.852;7.102;2023-06-14T09:44:10;1.42;;;1.00;;
10801;SDS011;5453;50.852;7.102;2023-06-14T09:46:43;2.83;;;1.42;;
10801;SDS011;5453;50.852;7.102;2023-06-14T09:49:17;1.98;;;1.38;;
10801;SDS011;5453;50.852;7.102;2023-06-14T09:51:50;2.45;;;1.42;;
10801;SDS011;5453;50.852;7.102;2023-06-14T09:54:24;2.10;;;1.38;;
10801;SDS011;5453;50.852;7.102;2023-06-14T09:56:57;1.80;;;1.17;;
10801;SDS011;5453;50.852;7.102;2023-06-14T09:59:30;1.30;;;1.08;;
10801;SDS011;5453;50.852;7.102;2023-06-14T10:02:05;2.33;;;1.38;;
10801;SDS011;5453;50.852;7.102;2023-06-14T10:04:53;1.60;;;1.10;;
10801;SDS011;5453;50.852;7.102;2023-06-14T10:07:32;1.42;;;1.02;;
10801;SDS011;5453;50.852;7.102;2023-06-14T10:10:07;1.85;;;1.30;;
10801;SDS011;5453;50.852;7.102;2023-06-14T10:12:40;2.72;;;1.30;;
10801;SDS011;5453;50.852;7.102;2023-06-14T10:15:15;2.15;;;1.13;;
10801;SDS011;5453;50.852;7.102;2023-06-14T10:17:54;1.23;;;1.10;;
10801;SDS011;5453;50.852;7.102;2023-06-14T10:20:35;2.20;;;1.30;;
10801;SDS011;5453;50.852;7.102;2023-06-14T10:23:16;2.17;;;1.33;;
10801;SDS011;5453;50.852;7.102;2023-06-14T10:25:54;1.88;;;1.20;;
10801;SDS011;5453;50.852;7.102;2023-06-14T10:28:27;1.77;;;1.20;;
10801;SDS011;5453;50.852;7.102;2023-06-14T10:31:04;1.48;;;1.10;;
10801;SDS011;5453;50.852;7.102;2023-06-14T10:33:39;1.63;;;1.20;;
10801;SDS011;5453;50.852;7.102;2023-06-14T10:36:26;2.03;;;1.30;;
10801;SDS011;5453;50.852;7.102;2023-06-14T10:39:01;2.10;;;1.15;;
10801;SDS011;5453;50.852;7.102;2023-06-14T10:41:38;2.55;;;1.33;;
10801;SDS011;5453;50.852;7.102;2023-06-14T10:44:31;1.55;;;1.20;;
10801;SDS011;5453;50.852;7.102;2023-06-14T10:50:05;1.73;;;1.20;;
10801;SDS011;5453;50.852;7.102;2023-06-14T10:52:41;2.10;;;1.13;;
10801;SDS011;5453;50.852;7.102;2023-06-14T10:55:15;4.05;;;1.20;;
10801;SDS011;5453;50.852;7.102;2023-06-14T10:57:50;2.03;;;1.38;;
10801;SDS011;5453;50.852;7.102;2023-06-14T11:00:27;1.75;;;1.27;;
10801;SDS011;5453;50.852;7.102;2023-06-14T11:06:15;2.70;;;1.55;;
10801;SDS011;5453;50.852;7.102;2023-06-14T11:09:02;1.77;;;1.10;;
10801;SDS011;5453;50.852;7.102;2023-06-14T11:12:06;3.33;;;1.33;;
10801;SDS011;5453;50.852;7.102;2023-06-14T11:14:42;1.83;;;1.27;;
10801;SDS011;5453;50.852;7.102;2023-06-14T11:17:17;2.78;;;1.35;;
10801;SDS011;5453;50.852;7.102;2023-06-14T11:19:49;2.08;;;1.40;;
10801;SDS011;5453;50.852;7.102;2023-06-14T11:22:21;2.08;;;1.30;;
10801;SDS011;5453;50.852;7.102;2023-06-14T11:24:54;1.10;;;1.00;;
10801;SDS011;5453;50.852;7.102;2023-06-14T11:27:27;1.90;;;1.23;;
10801;SDS011;5453;50.852;7.102;2023-06-14T11:30:00;1.85;;;1.15;;
10801;SDS011;5453;50.852;7.102;2023-06-14T11:32:32;4.05;;;1.25;;
10801;SDS011;5453;50.852;7.102;2023-06-14T11:35:04;2.17;;;1.20;;
10801;SDS011;5453;50.852;7.102;2023-06-14T11:37:38;1.90;;;1.20;;
10801;SDS011;5453;50.852;7.102;2023-06-14T11:42:45;2.47;;;1.20;;
10801;SDS011;5453;50.852;7.102;2023-06-14T11:45:18;3.95;;;1.60;;
10801;SDS011;5453;50.852;7.102;2023-06-14T11:47:50;2.30;;;1.27;;
10801;SDS011;5453;50.852;7.102;2023-06-14T11:50:22;2.22;;;1.25;;
10801;SDS011;5453;50.852;7.102;2023-06-14T11:52:55;1.88;;;1.10;;
10801;SDS011;5453;50.852;7.102;2023-06-14T11:55:29;1.45;;;1.02;;
10801;SDS011;5453;50.852;7.102;2023-06-14T11:58:01;2.72;;;1.23;;
10801;SDS011;5453;50.852;7.102;2023-06-14T12:00:35;1.25;;;1.10;;
10801;SDS011;5453;50.852;7.102;2023-06-14T12:03:08;1.33;;;1.20;;
10801;SDS011;5453;50.852;7.102;2023-06-14T12:05:40;1.27;;;1.00;;
10801;SDS011;5453;50.852;7.102;2023-06-14T12:08:12;1.55;;;1.00;;
10801;SDS011;5453;50.852;7.102;2023-06-14T12:10:50;2.13;;;1.00;;
10801;SDS011;5453;50.852;7.102;2023-06-14T12:13:24;1.20;;;0.88;;
10801;SDS011;5453;50.852;7.102;2023-06-14T12:15:57;1.02;;;0.93;;
10801;SDS011;5453;50.852;7.102;2023-06-14T12:18:34;1.20;;;0.95;;
10801;SDS011;5453;50.852;7.102;2023-06-14T12:21:06;1.88;;;1.10;;
10801;SDS011;5453;50.852;7.102;2023-06-14T12:23:42;1.40;;;1.10;;
10801;SDS011;5453;50.852;7.102;2023-06-14T12:26:17;1.35;;;0.93;;
10801;SDS011;5453;50.852;7.102;2023-06-14T12:28:51;0.95;;;0.80;;
10801;SDS011;5453;50.852;7.102;2023-06-14T12:31:23;2.08;;;1.00;;
10801;SDS011;5453;50.852;7.102;2023-06-14T12:33:55;1.55;;;0.90;;
10801;SDS011;5453;50.852;7.102;2023-06-14T12:36:27;1.27;;;0.90;;
10801;SDS011;5453;50.852;7.102;2023-06-14T12:39:00;1.33;;;0.90;;
10801;SDS011;5453;50.852;7.102;2023-06-14T12:41:33;1.52;;;1.00;;
10801;SDS011;5453;50.852;7.102;2023-06-14T12:44:06;1.20;;;0.90;;
10801;SDS011;5453;50.852;7.102;2023-06-14T12:46:39;1.02;;;0.90;;
10801;SDS011;5453;50.852;7.102;2023-06-14T12:49:11;1.95;;;1.15;;
10801;SDS011;5453;50.852;7.102;2023-06-14T12:51:44;1.25;;;0.98;;
10801;SDS011;5453;50.852;7.102;2023-06-14T12:54:16;3.60;;;1.10;;
10801;SDS011;5453;50.852;7.102;2023-06-14T12:56:50;2.15;;;1.08;;
10801;SDS011;5453;50.852;7.102;2023-06-14T12:59:23;3.25;;;1.05;;
10801;SDS011;5453;50.852;7.102;2023-06-14T13:01:55;1.20;;;0.90;;
10801;SDS011;5453;50.852;7.102;2023-06-14T13:04:27;2.90;;;1.33;;
10801;SDS011;5453;50.852;7.102;2023-06-14T13:06:59;1.27;;;1.00;;
10801;SDS011;5453;50.852;7.102;2023-06-14T13:09:31;4.68;;;1.25;;
10801;SDS011;5453;50.852;7.102;2023-06-14T13:12:05;1.60;;;1.23;;
10801;SDS011;5453;50.852;7.102;2023-06-14T13:14:41;2.95;;;1.00;;
10801;SDS011;5453;50.852;7.102;2023-06-14T13:17:13;1.35;;;1.25;;
10801;SDS011;5453;50.852;7.102;2023-06-14T13:19:45;2.35;;;1.10;;
10801;SDS011;5453;50.852;7.102;2023-06-14T13:22:17;1.63;;;1.20;;
10801;SDS011;5453;50.852;7.102;2023-06-14T13:24:49;2.08;;;1.40;;
10801;SDS011;5453;50.852;7.102;2023-06-14T13:27:23;1.13;;;1.00;;
10801;SDS011;5453;50.852;7.102;2023-06-14T13:29:55;4.95;;;1.50;;
10801;SDS011;5453;50.852;7.102;2023-06-14T13:32:27;2.15;;;1.38;;
10801;SDS011;5453;50.852;7.102;2023-06-14T13:34:59;1.60;;;1.50;;
10801;SDS011;5453;50.852;7.102;2023-06-14T13:37:31;1.95;;;1.50;;
10801;SDS011;5453;50.852;7.102;2023-06-14T13:40:04;2.72;;;1.20;;
10801;SDS011;5453;50.852;7.102;2023-06-14T13:45:11;1.77;;;1.50;;
10801;SDS011;5453;50.852;7.102;2023-06-14T13:47:44;2.30;;;1.45;;
10801;SDS011;5453;50.852;7.102;2023-06-14T13:50:18;1.80;;;1.60;;
10801;SDS011;5453;50.852;7.102;2023-06-14T13:52:50;1.80;;;1.70;;
10801;SDS011;5453;50.852;7.102;2023-06-14T13:55:22;2.45;;;1.52;;
10801;SDS011;5453;50.852;7.102;2023-06-14T13:57:56;2.95;;;1.33;;
10801;SDS011;5453;50.852;7.102;2023-06-14T14:00:28;4.13;;;1.55;;
10801;SDS011;5453;50.852;7.102;2023-06-14T14:03:00;1.50;;;1.27;;
10801;SDS011;5453;50.852;7.102;2023-06-14T14:05:33;2.45;;;1.40;;
10801;SDS011;5453;50.852;7.102;2023-06-14T14:08:05;5.55;;;1.60;;
10801;SDS011;5453;50.852;7.102;2023-06-14T14:10:37;2.17;;;1.80;;
10801;SDS011;5453;50.852;7.102;2023-06-14T14:13:11;2.10;;;1.42;;
10801;SDS011;5453;50.852;7.102;2023-06-14T14:15:44;1.92;;;1.40;;
10801;SDS011;5453;50.852;7.102;2023-06-14T14:18:16;1.60;;;1.30;;
10801;SDS011;5453;50.852;7.102;2023-06-14T14:20:48;2.03;;;1.58;;
10801;SDS011;5453;50.852;7.102;2023-06-14T14:23:21;1.83;;;1.52;;
10801;SDS011;5453;50.852;7.102;2023-06-14T14:25:53;3.80;;;1.60;;
10801;SDS011;5453;50.852;7.102;2023-06-14T14:28:27;4.80;;;1.55;;
10801;SDS011;5453;50.852;7.102;2023-06-14T14:30:59;2.17;;;1.50;;
10801;SDS011;5453;50.852;7.102;2023-06-14T14:33:31;2.20;;;1.52;;
10801;SDS011;5453;50.852;7.102;2023-06-14T14:36:05;1.73;;;1.40;;
10801;SDS011;5453;50.852;7.102;2023-06-14T14:38:37;4.95;;;1.50;;
10801;SDS011;5453;50.852;7.102;2023-06-14T14:41:09;2.13;;;1.33;;
10801;SDS011;5453;50.852;7.102;2023-06-14T14:43:43;2.00;;;1.40;;
10801;SDS011;5453;50.852;7.102;2023-06-14T14:46:16;3.53;;;1.42;;
10801;SDS011;5453;50.852;7.102;2023-06-14T14:48:48;2.05;;;1.80;;
10801;SDS011;5453;50.852;7.102;2023-06-14T14:51:20;1.90;;;1.40;;
10801;SDS011;5453;50.852;7.102;2023-06-14T14:53:52;3.03;;;1.50;;
10801;SDS011;5453;50.852;7.102;2023-06-14T14:56:24;4.25;;;1.70;;
10801;SDS011;5453;50.852;7.102;2023-06-14T14:58:58;2.78;;;1.90;;
10801;SDS011;5453;50.852;7.102;2023-06-14T15:01:30;2.10;;;1.75;;
10801;SDS011;5453;50.852;7.102;2023-06-14T15:04:03;2.45;;;1.55;;
10801;SDS011;5453;50.852;7.102;2023-06-14T15:06:35;2.53;;;1.60;;
10801;SDS011;5453;50.852;7.102;2023-06-14T15:09:09;4.13;;;1.65;;
10801;SDS011;5453;50.852;7.102;2023-06-14T15:11:41;5.38;;;1.70;;
10801;SDS011;5453;50.852;7.102;2023-06-14T15:14:16;3.40;;;1.40;;
10801;SDS011;5453;50.852;7.102;2023-06-14T15:16:48;2.15;;;1.35;;
10801;SDS011;5453;50.852;7.102;2023-06-14T15:19:20;1.77;;;1.45;;
10801;SDS011;5453;50.852;7.102;2023-06-14T15:21:52;2.30;;;1.70;;
10801;SDS011;5453;50.852;7.102;2023-06-14T15:24:24;1.90;;;1.73;;
10801;SDS011;5453;50.852;7.102;2023-06-14T15:26:57;2.10;;;1.60;;
10801;SDS011;5453;50.852;7.102;2023-06-14T15:29:30;2.05;;;1.50;;
10801;SDS011;5453;50.852;7.102;2023-06-14T15:32:03;1.85;;;1.40;;
10801;SDS011;5453;50.852;7.102;2023-06-14T15:34:36;3.28;;;1.58;;
10801;SDS011;5453;50.852;7.102;2023-06-14T15:37:09;3.17;;;1.70;;
10801;SDS011;5453;50.852;7.102;2023-06-14T15:39:41;4.30;;;1.60;;
10801;SDS011;5453;50.852;7.102;2023-06-14T15:42:13;2.10;;;1.50;;
10801;SDS011;5453;50.852;7.102;2023-06-14T15:44:47;2.53;;;1.90;;
10801;SDS011;5453;50.852;7.102;2023-06-14T15:47:19;2.67;;;1.60;;
10801;SDS011;5453;50.852;7.102;2023-06-14T15:49:51;3.47;;;1.92;;
10801;SDS011;5453;50.852;7.102;2023-06-14T15:52:23;1.83;;;1.60;;